Time;durP1;ratioP1;P1;durP2;ratioP2;P2;SDS_P1;SDS_P2;PMS_P1;PMS_P2;Temp;Humidity;BMP_temperature;BMP_pressure;BME280_temperature;BME280_humidity;BME280_pressure;Samples;Min_cycle;Max_cycle;Signal;HPM_P1;HPM_P2
2022/09/04 00:00:36;;;;;;;;;;;;;;;23.72;46.27;101033.66;5144625;27;19998;-38
2022/09/04 00:03:14;;;;;;;;;;;;;;;23.70;47.22;101033.97;5165522;27;20044;-38
2022/09/04 00:05:44;;;;;;;;;;;;;;;23.70;46.71;101033.97;5162509;27;19962;-38
2022/09/04 00:08:13;;;;;;;;;;;;;;;23.71;46.55;101035.63;5147957;27;20400;-38
2022/09/04 00:10:59;;;;;;;;;;;;;;;23.70;47.39;101039.53;5159692;27;20018;-38
2022/09/04 00:13:26;;;;;;;;;;;;;;;23.70;46.42;101047.03;5150681;27;19927;-38
2022/09/04 00:15:55;;;;;;;;;;;;;;;23.70;46.78;101044.25;5144809;27;19963;-38
2022/09/04 00:18:29;;;;;;;;;;;;;;;23.69;46.90;101043.44;5162887;27;20018;-38
2022/09/04 00:21:05;;;;;;;;;;;;;;;23.69;47.30;101048.19;5140173;27;19974;-38
2022/09/04 00:23:35;;;;;;;;;;;;;;;23.70;46.90;101053.41;5161363;27;20007;-38
2022/09/04 00:26:20;;;;;;;;;;;;;;;23.70;46.69;101055.38;5163475;27;20411;-38
2022/09/04 00:28:48;;;;;;;;;;;;;;;23.70;47.05;101061.75;5147516;27;19931;-38
2022/09/04 00:31:17;;;;;;;;;;;;;;;23.70;47.41;101066.50;5166495;27;19974;-38
2022/09/04 00:33:49;;;;;;;;;;;;;;;23.70;46.86;101063.72;5164035;27;19923;-38
2022/09/04 00:36:16;;;;;;;;;;;;;;;23.71;47.16;101062.63;5165531;27;19978;-38
2022/09/04 00:38:52;;;;;;;;;;;;;;;23.71;46.42;101070.97;5146008;27;19962;-38
2022/09/04 00:41:38;;;;;;;;;;;;;;;23.70;46.74;101060.94;5148345;27;20068;-38
2022/09/04 00:44:23;;;;;;;;;;;;;;;23.69;47.13;101065.69;5149347;27;20046;-38
2022/09/04 00:47:06;;;;;;;;;;;;;;;23.70;46.51;101070.09;5142494;27;19976;-38
2022/09/04 00:49:35;;;;;;;;;;;;;;;23.70;47.28;101070.09;5159329;27;19992;-38
2022/09/04 00:52:07;;;;;;;;;;;;;;;23.69;46.82;101076.81;5145180;27;20356;-38
2022/09/04 00:54:46;;;;;;;;;;;;;;;23.70;46.48;101075.66;5167635;27;20014;-38
2022/09/04 00:57:21;;;;;;;;;;;;;;;23.70;46.57;101080.41;5162152;27;20030;-38
2022/09/04 01:02:42;;;;;;;;;;;;;;;23.70;46.85;101075.66;5166304;27;20033;-38
2022/09/04 01:05:13;;;;;;;;;;;;;;;23.70;46.89;101080.41;5168506;27;20021;-38
2022/09/04 01:07:48;;;;;;;;;;;;;;;23.70;47.18;101080.41;5167096;27;19930;-38
2022/09/04 01:10:23;;;;;;;;;;;;;;;23.70;46.86;101086.78;5145344;27;19970;-38
2022/09/04 01:12:53;;;;;;;;;;;;;;;23.69;47.42;101087.94;5166891;27;19964;-38
2022/09/04 01:15:21;;;;;;;;;;;;;;;23.70;47.08;101085.97;5168679;27;20001;-38
2022/09/04 01:17:51;;;;;;;;;;;;;;;23.69;47.26;101087.94;5163128;27;20478;-38
2022/09/04 01:20:20;;;;;;;;;;;;;;;23.69;46.99;101096.28;5166063;27;20404;-38
2022/09/04 01:23:06;;;;;;;;;;;;;;;23.70;46.89;101099.88;5149821;27;19966;-38
2022/09/04 01:25:51;;;;;;;;;;;;;;;23.69;47.17;101110.16;5154161;27;20376;-38
2022/09/04 01:28:34;;;;;;;;;;;;;;;23.70;47.33;101097.09;5153078;27;20025;-38
2022/09/04 01:31:03;;;;;;;;;;;;;;;23.69;47.34;101096.28;5149239;27;20641;-38
2022/09/04 01:33:32;;;;;;;;;;;;;;;23.70;47.34;101111.81;5164834;27;20002;-38
2022/09/04 01:36:04;;;;;;;;;;;;;;;23.70;47.51;101099.88;5149900;27;19980;-38
2022/09/04 01:38:32;;;;;;;;;;;;;;;23.69;47.30;101101.84;5168207;27;20031;-38
2022/09/04 01:41:07;;;;;;;;;;;;;;;23.69;46.79;101101.00;5166022;27;20009;-38
2022/09/04 01:43:33;;;;;;;;;;;;;;;23.69;47.22;101107.41;5164789;27;19982;-38
2022/09/04 01:46:03;;;;;;;;;;;;;;;23.69;47.48;101109.34;5148066;27;19970;-38
2022/09/04 01:48:49;;;;;;;;;;;;;;;23.70;46.54;101108.22;5168565;27;19927;-38
2022/09/04 01:51:34;;;;;;;;;;;;;;;23.69;47.15;101110.16;5152261;27;19974;-38
2022/09/04 01:54:06;;;;;;;;;;;;;;;23.69;47.05;101112.94;5151030;27;20010;-38
2022/09/04 01:56:37;;;;;;;;;;;;;;;23.69;46.93;101107.41;5167485;27;20368;-38
2022/09/04 01:59:09;;;;;;;;;;;;;;;23.70;46.85;101117.38;5151557;27;20428;-38
2022/09/04 02:01:54;;;;;;;;;;;;;;;23.70;47.42;101119.34;5167739;27;20401;-38
2022/09/04 02:04:28;;;;;;;;;;;;;;;23.69;47.34;101120.47;5149833;27;19931;-38
2022/09/04 02:06:57;;;;;;;;;;;;;;;23.69;47.37;101112.94;5164494;27;19988;-38
2022/09/04 02:09:27;;;;;;;;;;;;;;;23.70;46.76;101122.13;5167448;27;20067;-39
2022/09/04 02:11:58;;;;;;;;;;;;;;;23.69;47.33;101118.50;5166497;27;20029;-38
2022/09/04 02:14:32;;;;;;;;;;;;;;;23.69;47.33;101124.06;5153027;27;19927;-38
2022/09/04 02:17:06;;;;;;;;;;;;;;;23.69;47.49;101126.03;5134153;27;19959;-38
2022/09/04 02:19:35;;;;;;;;;;;;;;;23.70;47.39;101124.91;5150076;27;20404;-38
2022/09/04 02:22:05;;;;;;;;;;;;;;;23.69;46.95;101126.84;5153333;27;19980;-38
2022/09/04 02:24:34;;;;;;;;;;;;;;;23.70;46.83;101130.47;5153296;27;20015;-38
2022/09/04 02:27:07;;;;;;;;;;;;;;;23.68;47.48;101130.78;5133521;27;20026;-38
2022/09/04 02:29:38;;;;;;;;;;;;;;;23.69;46.66;101137.97;5137423;27;20018;-39
2022/09/04 02:32:24;;;;;;;;;;;;;;;23.69;46.93;101140.75;5152324;27;20424;-38
2022/09/04 02:35:09;;;;;;;;;;;;;;;23.70;47.21;101144.34;5137918;27;20034;-38
2022/09/04 02:37:55;;;;;;;;;;;;;;;23.68;47.17;101144.69;5138747;27;19965;-38
2022/09/04 02:40:25;;;;;;;;;;;;;;;23.68;47.23;101147.47;5137719;27;19970;-38
2022/09/04 02:43:05;;;;;;;;;;;;;;;23.69;46.83;101142.72;5136817;27;19931;-38
2022/09/04 02:45:44;;;;;;;;;;;;;;;23.69;47.33;101140.75;5131484;27;19958;-38
2022/09/04 02:48:12;;;;;;;;;;;;;;;23.68;46.94;101139.13;5154023;27;20373;-38
2022/09/04 02:50:45;;;;;;;;;;;;;;;23.69;46.78;101142.72;5135564;27;19996;-38
2022/09/04 02:53:30;;;;;;;;;;;;;;;23.69;46.66;101149.09;5152391;27;20014;-38
2022/09/04 02:56:01;;;;;;;;;;;;;;;23.69;47.26;101146.31;5134867;27;19966;-38
2022/09/04 02:58:48;;;;;;;;;;;;;;;23.69;46.87;101143.53;5153757;27;20357;-38
2022/09/04 03:01:23;;;;;;;;;;;;;;;23.69;46.69;101146.31;5138504;27;19978;-38
2022/09/04 03:03:58;;;;;;;;;;;;;;;23.69;47.27;101151.06;5153340;27;19931;-39
2022/09/04 03:06:44;;;;;;;;;;;;;;;23.68;47.28;101147.47;5152989;27;20026;-38
2022/09/04 03:09:12;;;;;;;;;;;;;;;23.68;47.06;101147.47;5138362;27;19981;-38
2022/09/04 03:11:39;;;;;;;;;;;;;;;23.68;46.83;101144.69;5153465;27;20006;-38
2022/09/04 03:14:06;;;;;;;;;;;;;;;23.70;47.18;101144.34;5151538;27;20446;-38
2022/09/04 03:16:35;;;;;;;;;;;;;;;23.68;46.80;101147.47;5133056;27;20433;-38
2022/09/04 03:19:18;;;;;;;;;;;;;;;23.70;46.74;101149.91;5134740;27;20014;-38
2022/09/04 03:21:52;;;;;;;;;;;;;;;23.69;47.08;101145.50;5133577;27;19930;-38
2022/09/04 03:24:27;;;;;;;;;;;;;;;23.69;47.02;101145.50;5134063;27;20018;-38
2022/09/04 03:26:54;;;;;;;;;;;;;;;23.69;46.94;101151.88;5151515;27;20072;-38
2022/09/04 03:29:23;;;;;;;;;;;;;;;23.69;47.29;101159.41;5134143;27;20657;-38
2022/09/04 03:31:50;;;;;;;;;;;;;;;23.69;47.16;101162.19;5150611;27;20336;-38
2022/09/04 03:34:23;;;;;;;;;;;;;;;23.69;47.17;101162.19;5151647;27;20068;-38
2022/09/04 03:36:55;;;;;;;;;;;;;;;23.69;47.05;101162.19;5151011;27;20664;-38
2022/09/04 03:39:26;;;;;;;;;;;;;;;23.68;46.88;101161.34;5151724;27;20022;-38
2022/09/04 03:42:11;;;;;;;;;;;;;;;23.69;46.91;101167.75;5152760;27;19923;-39
2022/09/04 03:44:44;;;;;;;;;;;;;;;23.69;46.99;101165.78;5137546;27;20017;-38
2022/09/04 03:47:29;;;;;;;;;;;;;;;23.68;46.83;101175.25;5149846;27;19958;-38
2022/09/04 03:50:00;;;;;;;;;;;;;;;23.68;46.95;101174.44;5136392;27;20026;-38
2022/09/04 03:52:31;;;;;;;;;;;;;;;23.69;47.02;101167.75;5150992;27;19958;-38
2022/09/04 03:55:17;;;;;;;;;;;;;;;23.68;47.41;101174.44;5151596;27;20406;-38
2022/09/04 03:58:02;;;;;;;;;;;;;;;23.68;46.86;101175.25;5136413;27;20010;-38
2022/09/04 04:00:29;;;;;;;;;;;;;;;23.67;46.95;101176.41;5136746;27;19970;-38
2022/09/04 04:02:59;;;;;;;;;;;;;;;23.67;47.46;101173.63;5152076;27;19923;-38
2022/09/04 04:05:45;;;;;;;;;;;;;;;23.68;47.39;101180.81;5150657;27;19927;-39
2022/09/04 04:08:26;;;;;;;;;;;;;;;23.68;46.86;101183.59;5137343;27;19923;-38
2022/09/04 04:11:11;;;;;;;;;;;;;;;23.69;47.10;101192.78;5146205;27;20648;-38
2022/09/04 04:13:50;;;;;;;;;;;;;;;23.68;47.57;101185.56;5136834;27;19961;-38
2022/09/04 04:16:26;;;;;;;;;;;;;;;23.68;47.05;101188.34;5148229;27;19930;-38
2022/09/04 04:19:12;;;;;;;;;;;;;;;23.68;46.87;101183.59;5132765;27;19931;-38
2022/09/04 04:21:54;;;;;;;;;;;;;;;23.68;47.10;101182.78;5135128;27;20021;-38
2022/09/04 04:24:27;;;;;;;;;;;;;;;23.68;47.09;101186.38;5151881;27;19958;-38
2022/09/04 04:27:13;;;;;;;;;;;;;;;23.68;47.19;101188.34;5150159;27;20452;-38
2022/09/04 04:29:58;;;;;;;;;;;;;;;23.68;47.07;101191.94;5133681;27;20754;-38
2022/09/04 04:32:31;;;;;;;;;;;;;;;23.68;47.47;101194.72;5137055;27;19954;-38
2022/09/04 04:35:11;;;;;;;;;;;;;;;23.68;46.95;101197.50;5133002;27;20362;-38
2022/09/04 04:37:42;;;;;;;;;;;;;;;23.68;46.79;101202.25;5148136;27;20046;-38
2022/09/04 04:40:10;;;;;;;;;;;;;;;23.68;46.96;101205.84;5148381;27;20002;-38
2022/09/04 04:42:41;;;;;;;;;;;;;;;23.68;47.33;101205.03;5150771;27;19930;-38
2022/09/04 04:45:58;;;;;;;;;;;;;;;23.68;46.88;101207.81;5151514;27;20001;-38
2022/09/04 04:48:23;;;;;;;;;;;;;;;23.68;46.77;101205.03;5124507;27;20013;-38
2022/09/04 04:50:52;;;;;;;;;;;;;;;23.68;46.94;101203.06;5147954;27;19938;-38
2022/09/04 04:53:28;;;;;;;;;;;;;;;23.68;46.90;101207.81;5149066;27;19958;-38
2022/09/04 04:55:58;;;;;;;;;;;;;;;23.69;46.81;101218.63;5149615;27;20022;-38
2022/09/04 04:58:35;;;;;;;;;;;;;;;23.68;46.82;101224.50;5134455;27;19958;-38
2022/09/04 05:01:05;;;;;;;;;;;;;;;23.68;46.64;101227.28;5150934;27;20017;-39
2022/09/04 05:03:38;;;;;;;;;;;;;;;23.69;46.85;101231.69;5133267;27;20441;-38
2022/09/04 05:08:46;;;;;;;;;;;;;;;23.69;46.79;101237.25;5182700;27;20026;-38
2022/09/04 05:11:32;;;;;;;;;;;;;;;23.69;46.82;101242.81;5150377;27;20030;-38
2022/09/04 05:14:04;;;;;;;;;;;;;;;23.68;47.51;101244.78;5152181;27;20061;-38
2022/09/04 05:16:33;;;;;;;;;;;;;;;23.69;46.86;101248.38;5163124;27;20358;-38
2022/09/04 05:19:01;;;;;;;;;;;;;;;23.68;46.99;101249.50;5168363;27;19923;-38
2022/09/04 05:21:29;;;;;;;;;;;;;;;23.68;46.90;101253.13;5169274;27;19978;-38
2022/09/04 05:23:57;;;;;;;;;;;;;;;23.69;47.07;101262.28;5149310;27;20037;-38
2022/09/04 05:26:40;;;;;;;;;;;;;;;23.68;47.12;101255.09;5167612;27;20026;-38
2022/09/04 05:29:10;;;;;;;;;;;;;;;23.67;46.87;101262.59;5168277;27;20381;-39
2022/09/04 05:31:39;;;;;;;;;;;;;;;23.68;46.85;101277.31;5147976;27;19970;-38
2022/09/04 05:34:15;;;;;;;;;;;;;;;23.68;47.21;101277.31;5167584;27;19942;-38
2022/09/04 05:37:01;;;;;;;;;;;;;;;23.68;47.59;101277.31;5144258;27;20057;-38
2022/09/04 05:39:29;;;;;;;;;;;;;;;23.67;47.75;101282.06;5150785;27;20400;-38
2022/09/04 05:44:51;;;;;;;;;;;;;;;23.67;47.10;101287.63;5152731;27;20011;-38
2022/09/04 05:47:36;;;;;;;;;;;;;;;23.68;46.88;101291.22;5118349;27;19966;-38
2022/09/04 05:53:08;;;;;;;;;;;;;;;23.68;47.39;101302.34;5166521;27;20296;-38
2022/09/04 05:58:30;;;;;;;;;;;;;;;23.67;46.99;101307.09;5158984;27;20434;-38
2022/09/04 06:01:17;;;;;;;;;;;;;;;23.66;47.34;101305.44;5152039;27;19978;-38
2022/09/04 06:03:47;;;;;;;;;;;;;;;23.66;47.52;101308.22;5143670;27;19996;-38
2022/09/04 06:06:13;;;;;;;;;;;;;;;23.66;47.51;101319.34;5152425;27;20014;-38
2022/09/04 06:08:59;;;;;;;;;;;;;;;23.65;47.63;101317.66;5159310;27;20368;-38
2022/09/04 06:14:07;;;;;;;;;;;;;;;23.67;47.48;101323.78;5169898;27;19999;-38
2022/09/04 06:16:52;;;;;;;;;;;;;;;23.67;47.02;101322.94;5163752;27;19970;-38
2022/09/04 06:19:30;;;;;;;;;;;;;;;23.66;47.46;101321.28;5152201;27;20416;-38
2022/09/04 06:22:00;;;;;;;;;;;;;;;23.66;47.03;101324.91;5149462;27;19974;-39
2022/09/04 06:24:45;;;;;;;;;;;;;;;23.67;47.00;101329.34;5167824;27;20364;-38
2022/09/04 06:29:59;;;;;;;;;;;;;;;23.66;47.46;101327.69;5181463;27;20018;-38
2022/09/04 06:32:45;;;;;;;;;;;;;;;23.67;47.07;101332.13;5166950;27;19927;-38
2022/09/04 06:35:35;;;;;;;;;;;;;;;23.67;46.99;101326.56;5153267;27;19923;-38
2022/09/04 06:38:20;;;;;;;;;;;;;;;23.67;46.98;101328.50;5148977;27;20026;-38
2022/09/04 06:43:46;;;;;;;;;;;;;;;23.66;47.70;101335.19;5169094;27;19926;-38
2022/09/04 06:46:22;;;;;;;;;;;;;;;23.67;47.34;101340.47;5144215;27;20281;-38
2022/09/04 06:51:45;;;;;;;;;;;;;;;23.66;47.61;101336.03;5168780;27;19926;-38
2022/09/04 06:57:11;;;;;;;;;;;;;;;23.65;47.29;101345.47;5165369;27;20721;-38
2022/09/04 06:59:54;;;;;;;;;;;;;;;23.67;46.95;101342.41;5151664;27;20027;-38
2022/09/04 07:02:27;;;;;;;;;;;;;;;23.66;47.49;101349.94;5165617;27;20329;-38
2022/09/04 07:05:12;;;;;;;;;;;;;;;23.66;47.02;101346.28;5168497;27;19942;-38
2022/09/04 07:07:49;;;;;;;;;;;;;;;23.65;47.59;101351.03;5161612;27;20341;-38
2022/09/04 07:10:17;;;;;;;;;;;;;;;23.66;47.21;101355.50;5169634;27;19962;-38
2022/09/04 07:13:02;;;;;;;;;;;;;;;23.66;47.61;101355.50;5168193;27;19966;-38
2022/09/04 07:15:32;;;;;;;;;;;;;;;23.66;47.45;101354.63;5150421;27;19930;-38
2022/09/04 07:18:09;;;;;;;;;;;;;;;23.66;47.34;101360.19;5165200;27;19941;-38
2022/09/04 07:20:54;;;;;;;;;;;;;;;23.66;46.93;101366.63;5169556;27;20014;-38
2022/09/04 07:23:31;;;;;;;;;;;;;;;23.67;47.19;101359.91;5151305;27;20006;-38
2022/09/04 07:26:10;;;;;;;;;;;;;;;23.66;47.85;101363.84;5166621;27;20410;-38
2022/09/04 07:28:55;;;;;;;;;;;;;;;23.65;47.75;101362.16;5168093;27;20387;-38
2022/09/04 07:31:25;;;;;;;;;;;;;;;23.65;47.52;101366.91;5153100;27;20072;-38
2022/09/04 07:33:56;;;;;;;;;;;;;;;23.66;47.18;101374.97;5149279;27;19922;-38
2022/09/04 07:36:31;;;;;;;;;;;;;;;23.66;47.58;101374.09;5166715;27;20381;-38
2022/09/04 07:39:01;;;;;;;;;;;;;;;23.65;47.61;101370.50;5168019;27;19927;-38
2022/09/04 07:41:31;;;;;;;;;;;;;;;23.66;47.76;101385.22;5167677;27;19961;-38
2022/09/04 07:44:05;;;;;;;;;;;;;;;23.66;47.13;101385.22;5168033;27;19927;-38
2022/09/04 07:46:34;;;;;;;;;;;;;;;23.66;47.21;101377.75;5166604;27;19931;-38
2022/09/04 07:49:08;;;;;;;;;;;;;;;23.66;47.82;101388.00;5168072;27;19962;-38
2022/09/04 07:51:36;;;;;;;;;;;;;;;23.66;47.64;101385.22;5151888;27;20410;-38
2022/09/04 07:54:06;;;;;;;;;;;;;;;23.65;47.13;101387.19;5166558;27;19982;-38
2022/09/04 07:56:53;;;;;;;;;;;;;;;23.65;47.69;101389.13;5165618;27;19974;-38
2022/09/04 08:02:33;;;;;;;;;;;;;;;23.66;47.66;101393.56;5182822;27;19925;-38
2022/09/04 08:05:03;;;;;;;;;;;;;;;23.65;47.43;101392.75;5182538;27;20013;-38
2022/09/04 08:07:35;;;;;;;;;;;;;;;23.65;47.67;101389.97;5177832;27;20022;-38
2022/09/04 08:10:20;;;;;;;;;;;;;;;23.65;47.18;101389.97;5179424;27;20432;-38
2022/09/04 08:13:08;;;;;;;;;;;;;;;23.66;47.00;101393.56;5162888;27;19974;-38
2022/09/04 08:15:54;;;;;;;;;;;;;;;23.65;47.51;101397.47;5160241;27;19927;-38
2022/09/04 08:18:40;;;;;;;;;;;;;;;23.65;47.52;101392.75;5161010;27;19930;-38
2022/09/04 08:21:24;;;;;;;;;;;;;;;23.66;47.40;101407.47;5167684;27;20033;-38
2022/09/04 08:23:56;;;;;;;;;;;;;;;23.66;47.85;101401.91;5175617;27;20013;-38
2022/09/04 08:26:42;;;;;;;;;;;;;;;23.65;47.91;101406.66;5181219;27;20014;-39
2022/09/04 08:29:27;;;;;;;;;;;;;;;23.66;47.13;101410.25;5157749;27;19985;-38
2022/09/04 08:32:06;;;;;;;;;;;;;;;23.65;47.22;101408.59;5159988;27;20170;-38
2022/09/04 08:34:42;;;;;;;;;;;;;;;23.65;47.90;101416.94;5180235;27;20017;-38
2022/09/04 08:37:20;;;;;;;;;;;;;;;23.65;47.46;101414.16;5169186;27;20358;-38
2022/09/04 08:39:50;;;;;;;;;;;;;;;23.65;47.86;101411.38;5176900;27;20372;-38
2022/09/04 08:42:35;;;;;;;;;;;;;;;23.65;48.02;101419.72;5181033;27;20384;-38
2022/09/04 08:45:21;;;;;;;;;;;;;;;23.65;47.43;101412.22;5161672;27;19962;-38
2022/09/04 08:48:08;;;;;;;;;;;;;;;23.66;47.92;101418.59;5152335;27;20051;-38
2022/09/04 08:50:53;;;;;;;;;;;;;;;23.65;47.92;101423.34;5159093;27;19923;-39
2022/09/04 08:53:39;;;;;;;;;;;;;;;23.64;47.90;101421.66;5159768;27;19970;-38
2022/09/04 08:56:10;;;;;;;;;;;;;;;23.64;47.96;101423.59;5158600;27;19935;-38
2022/09/04 08:58:55;;;;;;;;;;;;;;;23.64;47.98;101427.22;5175175;27;19969;-38
2022/09/04 09:01:30;;;;;;;;;;;;;;;23.64;47.99;101427.22;5158177;27;20424;-38
2022/09/04 09:04:01;;;;;;;;;;;;;;;23.65;47.83;101428.88;5173433;27;19934;-38
2022/09/04 09:06:33;;;;;;;;;;;;;;;23.65;47.38;101428.06;5175627;27;20359;-38
2022/09/04 09:09:03;;;;;;;;;;;;;;;23.64;47.99;101429.16;5170464;27;19978;-38
2022/09/04 09:11:49;;;;;;;;;;;;;;;23.65;47.93;101425.28;5170404;27;20055;-38
2022/09/04 09:14:34;;;;;;;;;;;;;;;23.65;47.67;101419.72;5146444;27;19979;-38
2022/09/04 09:17:22;;;;;;;;;;;;;;;23.63;47.88;101425.56;5139520;27;20010;-38
2022/09/04 09:19:57;;;;;;;;;;;;;;;23.64;48.06;101423.59;5145760;27;19948;-38
2022/09/04 09:22:43;;;;;;;;;;;;;;;23.64;48.02;101426.38;5144739;27;20002;-38
2022/09/04 09:25:12;;;;;;;;;;;;;;;23.63;47.97;101422.78;5135272;27;20044;-38
2022/09/04 09:27:48;;;;;;;;;;;;;;;23.65;47.81;101419.72;5155323;27;20009;-38
2022/09/04 09:30:15;;;;;;;;;;;;;;;23.63;47.97;101427.53;5163492;27;20681;-38
2022/09/04 09:35:50;;;;;;;;;;;;;;;23.64;47.86;101418.03;5161631;27;19933;-38
2022/09/04 09:38:19;;;;;;;;;;;;;;;23.63;47.95;101417.22;5155876;27;20012;-38
2022/09/04 09:40:54;;;;;;;;;;;;;;;23.63;47.88;101414.44;5162841;27;20039;-38
2022/09/04 09:43:26;;;;;;;;;;;;;;;23.64;47.93;101409.69;5158826;27;20081;-39
2022/09/04 09:48:53;;;;;;;;;;;;;;;23.65;47.68;101411.38;5180198;27;19941;-39
2022/09/04 09:51:22;;;;;;;;;;;;;;;23.64;47.85;101415.28;5156164;27;19985;-39
2022/09/04 09:54:08;;;;;;;;;;;;;;;23.63;48.03;101399.72;5171695;27;20009;-38
2022/09/04 09:56:54;;;;;;;;;;;;;;;23.64;47.90;101412.50;5159957;27;20121;-38
2022/09/04 09:59:39;;;;;;;;;;;;;;;23.64;47.76;101412.50;5156153;27;19972;-38
2022/09/04 10:02:25;;;;;;;;;;;;;;;23.63;48.04;101402.50;5156553;27;20397;-38
2022/09/04 10:05:10;;;;;;;;;;;;;;;23.64;47.21;101413.31;5157371;27;20005;-38
2022/09/04 10:07:51;;;;;;;;;;;;;;;23.64;47.95;101412.50;5158736;27;19970;-38
2022/09/04 10:10:33;;;;;;;;;;;;;;;23.63;48.05;101416.41;5169174;27;20009;-38
2022/09/04 10:13:18;;;;;;;;;;;;;;;23.64;47.93;101412.50;5155103;27;20006;-38
2022/09/04 10:16:02;;;;;;;;;;;;;;;23.63;47.88;101403.31;5155172;27;19923;-38
2022/09/04 10:18:39;;;;;;;;;;;;;;;23.64;47.85;101409.69;5178843;27;19977;-38
2022/09/04 10:21:25;;;;;;;;;;;;;;;23.63;48.03;101410.84;5175454;27;20026;-38
2022/09/04 10:24:10;;;;;;;;;;;;;;;23.64;48.01;101415.28;5156713;27;20445;-38
2022/09/04 10:29:35;;;;;;;;;;;;;;;23.63;47.87;101414.44;5169505;27;20011;-38
2022/09/04 10:32:05;;;;;;;;;;;;;;;23.63;48.12;101411.66;5138599;27;20395;-38
2022/09/04 10:34:53;;;;;;;;;;;;;;;23.63;47.88;101408.88;5149900;27;19974;-39
2022/09/04 10:40:34;;;;;;;;;;;;;;;23.62;48.03;101410.00;5170702;27;19926;-38
2022/09/04 10:43:15;;;;;;;;;;;;;;;23.63;48.01;101420.00;5157585;27;19923;-38
2022/09/04 10:45:46;;;;;;;;;;;;;;;23.63;48.02;101413.63;5165331;27;20052;-38
2022/09/04 10:48:31;;;;;;;;;;;;;;;23.63;47.85;101414.44;5147440;27;20006;-38
2022/09/04 10:51:18;;;;;;;;;;;;;;;23.63;47.92;101417.22;5155343;27;19970;-38
2022/09/04 10:53:50;;;;;;;;;;;;;;;23.63;48.10;101413.63;5154178;27;19970;-38
2022/09/04 10:56:18;;;;;;;;;;;;;;;23.63;47.88;101416.41;5170032;27;20005;-38
2022/09/04 10:59:04;;;;;;;;;;;;;;;23.63;47.90;101411.66;5153430;27;20014;-38
2022/09/04 11:01:38;;;;;;;;;;;;;;;23.63;47.86;101408.88;5155695;27;19983;-38
2022/09/04 11:04:26;;;;;;;;;;;;;;;23.63;47.29;101406.09;5168779;27;19984;-38
2022/09/04 11:07:11;;;;;;;;;;;;;;;23.64;48.00;101415.28;5154742;27;19966;-38
2022/09/04 11:09:56;;;;;;;;;;;;;;;23.64;48.06;101415.28;5154519;27;19961;-38
2022/09/04 11:12:42;;;;;;;;;;;;;;;23.63;47.91;101414.44;5151724;27;20487;-38
2022/09/04 11:15:25;;;;;;;;;;;;;;;23.63;48.04;101408.88;5153615;27;19931;-38
2022/09/04 11:18:10;;;;;;;;;;;;;;;23.63;47.92;101402.50;5167135;27;20210;-38
2022/09/04 11:20:43;;;;;;;;;;;;;;;23.64;47.47;101404.97;5153198;27;20005;-38
2022/09/04 11:23:29;;;;;;;;;;;;;;;23.63;48.04;101408.88;5171079;27;20093;-38
2022/09/04 11:26:04;;;;;;;;;;;;;;;23.63;48.12;101402.50;5151538;27;20052;-38
2022/09/04 11:28:50;;;;;;;;;;;;;;;23.63;48.09;101399.72;5164756;27;20017;-39
2022/09/04 11:31:20;;;;;;;;;;;;;;;23.63;48.00;101399.72;5152230;27;19958;-38
2022/09/04 11:33:52;;;;;;;;;;;;;;;23.62;47.95;101398.91;5169528;27;19968;-38
2022/09/04 11:36:22;;;;;;;;;;;;;;;23.63;48.08;101399.72;5168441;27;20010;-38
2022/09/04 11:38:53;;;;;;;;;;;;;;;23.63;47.84;101399.72;5168120;27;19974;-38
2022/09/04 11:41:27;;;;;;;;;;;;;;;23.63;47.95;101392.19;5167580;27;20030;-38
2022/09/04 11:44:13;;;;;;;;;;;;;;;23.63;47.94;101400.53;5160393;27;20429;-38
2022/09/04 11:47:02;;;;;;;;;;;;;;;23.63;47.94;101402.50;5139447;27;20407;-38
2022/09/04 11:49:48;;;;;;;;;;;;;;;23.63;48.02;101402.50;5141231;27;20421;-38
2022/09/04 11:52:15;;;;;;;;;;;;;;;23.62;47.88;101403.59;5126243;27;19966;-38
2022/09/04 11:55:02;;;;;;;;;;;;;;;23.62;48.05;101401.69;5144087;27;19971;-38
2022/09/04 11:57:47;;;;;;;;;;;;;;;23.63;47.49;101405.28;5143774;27;20071;-38
2022/09/04 12:00:14;;;;;;;;;;;;;;;23.62;47.96;101401.69;5126336;27;20137;-38
2022/09/04 12:03:00;;;;;;;;;;;;;;;23.62;47.81;101398.91;5140437;27;20019;-38
2022/09/04 12:05:40;;;;;;;;;;;;;;;23.63;47.31;101400.53;5130177;27;20428;-38
2022/09/04 12:08:25;;;;;;;;;;;;;;;23.63;48.01;101406.09;5139440;27;20021;-38
2022/09/04 12:10:54;;;;;;;;;;;;;;;23.62;47.94;101396.13;5128772;27;20022;-38
2022/09/04 12:13:29;;;;;;;;;;;;;;;23.62;48.16;101404.47;5122974;27;19977;-38
2022/09/04 12:16:15;;;;;;;;;;;;;;;23.62;47.99;101398.91;5141446;27;19931;-38
2022/09/04 12:19:01;;;;;;;;;;;;;;;23.62;48.07;101400.81;5129836;27;19933;-39
2022/09/04 12:24:30;;;;;;;;;;;;;;;23.62;48.08;101398.91;5179017;27;19925;-38
2022/09/04 12:27:16;;;;;;;;;;;;;;;23.62;48.13;101407.25;5177890;27;20359;-38
2022/09/04 12:29:49;;;;;;;;;;;;;;;23.63;48.10;101402.50;5163319;27;19973;-38
2022/09/04 12:32:24;;;;;;;;;;;;;;;23.64;47.96;101406.94;5175054;27;20299;-38
2022/09/04 12:35:01;;;;;;;;;;;;;;;23.63;48.09;101411.66;5175307;27;19980;-38
2022/09/04 12:37:35;;;;;;;;;;;;;;;23.62;47.92;101407.25;5179489;27;19995;-38
2022/09/04 12:40:21;;;;;;;;;;;;;;;23.63;48.11;101410.84;5180940;27;20005;-38
2022/09/04 12:42:50;;;;;;;;;;;;;;;23.64;47.98;101412.50;5162735;27;20017;-38
2022/09/04 12:45:20;;;;;;;;;;;;;;;23.63;47.97;101396.94;5173538;27;19974;-38
2022/09/04 12:48:08;;;;;;;;;;;;;;;23.61;48.06;101405.56;5143190;27;20360;-38
2022/09/04 12:50:38;;;;;;;;;;;;;;;23.62;47.97;101404.47;5161076;27;20080;-38
2022/09/04 12:53:25;;;;;;;;;;;;;;;23.62;48.03;101401.69;5157953;27;20026;-38
2022/09/04 12:55:55;;;;;;;;;;;;;;;23.63;48.04;101399.72;5159926;27;20284;-38
2022/09/04 12:58:41;;;;;;;;;;;;;;;23.63;48.11;101408.06;5184830;27;20380;-38
2022/09/04 13:01:12;;;;;;;;;;;;;;;23.62;48.16;101398.91;5161639;27;20013;-38
2022/09/04 13:03:44;;;;;;;;;;;;;;;23.63;48.23;101400.53;5178808;27;19946;-38
2022/09/04 13:06:20;;;;;;;;;;;;;;;23.63;47.70;101396.94;5182695;27;19962;-38
2022/09/04 13:09:06;;;;;;;;;;;;;;;23.62;48.19;101398.91;5173156;27;19962;-38
2022/09/04 13:11:51;;;;;;;;;;;;;;;23.63;47.96;101402.50;5157338;27;20041;-38
2022/09/04 13:14:37;;;;;;;;;;;;;;;23.62;48.21;101409.16;5156514;27;20029;-38
2022/09/04 13:17:24;;;;;;;;;;;;;;;23.62;48.08;101409.16;5152422;27;19930;-38
2022/09/04 13:19:53;;;;;;;;;;;;;;;23.62;47.87;101412.78;5164079;27;19922;-38
2022/09/04 13:22:24;;;;;;;;;;;;;;;23.63;47.97;101410.84;5179219;27;20002;-38
2022/09/04 13:24:57;;;;;;;;;;;;;;;23.63;48.04;101405.28;5174565;27;20396;-38
2022/09/04 13:27:43;;;;;;;;;;;;;;;23.62;48.17;101406.38;5180867;27;19993;-38
2022/09/04 13:30:14;;;;;;;;;;;;;;;23.62;48.07;101410.00;5161860;27;19930;-38
2022/09/04 13:32:44;;;;;;;;;;;;;;;23.62;48.16;101403.59;5177618;27;20404;-38
2022/09/04 13:35:30;;;;;;;;;;;;;;;23.61;48.00;101408.34;5166707;27;19971;-38
2022/09/04 13:38:14;;;;;;;;;;;;;;;23.63;48.04;101413.63;5146556;27;21054;-38
2022/09/04 13:41:00;;;;;;;;;;;;;;;23.62;47.97;101407.25;5137495;27;19978;-38
2022/09/04 13:43:31;;;;;;;;;;;;;;;23.62;48.10;101409.16;5137834;27;20002;-38
2022/09/04 13:45:57;;;;;;;;;;;;;;;23.63;48.25;101420.00;5137228;27;20014;-38
2022/09/04 13:48:43;;;;;;;;;;;;;;;23.62;48.19;101415.56;5143270;27;19961;-38
2022/09/04 13:51:12;;;;;;;;;;;;;;;23.62;47.92;101409.16;5124646;27;20031;-38
2022/09/04 13:53:47;;;;;;;;;;;;;;;23.62;48.27;101417.50;5142926;27;19949;-38
2022/09/04 13:56:15;;;;;;;;;;;;;;;23.63;48.10;101416.41;5120176;27;20015;-38
2022/09/04 13:58:50;;;;;;;;;;;;;;;23.63;48.12;101419.19;5145797;27;19975;-38
2022/09/04 14:01:16;;;;;;;;;;;;;;;23.62;48.19;101421.13;5142087;27;19973;-38
2022/09/04 14:03:44;;;;;;;;;;;;;;;23.63;48.07;101421.97;5120650;27;20342;-38
2022/09/04 14:06:13;;;;;;;;;;;;;;;23.62;48.07;101423.91;5146222;27;19931;-38
2022/09/04 14:08:40;;;;;;;;;;;;;;;23.62;48.19;101418.34;5122142;27;20292;-38